Latest Coastal Weather Observations for Bunbury

IDW60701

Issued at 5:11 am WST Thursday 5 May 2016 (issued every 10 minutes, with the page automatically refreshed every 10 minutes)

About coastal observations | Map of coastal stations | Coastal observations for WA | Marine services | Other Formats
Station Details ID: 009965 Name: BUNBURY Lat: -33.36 Lon: 115.64 Height: 5.2 m
Data from the previous 72 hours. | See also: Recent months at Bunbury
Date/Time
WST
Temp

°C
Wind Pressure Rain
since 9am
mm
Weather Cloud Vis
km
Sea
Height
m
Swell
Dir
 
Speed
knots
Gust
knots
hPa Trend Height
m
Period
s
Dir
05/05:00am 11.6 S 2 3 1015.1 - 0.0 - - - - - - -
05/04:30am 10.6 CALM 0 0 1014.7 - 0.0 - - - - - - -
05/04:00am 10.8 E 1 2 1014.7 - 0.0 - - - - - - -
05/03:30am 11.5 CALM 0 2 1014.6 - 0.0 - - - - - - -
05/03:00am 11.4 E 2 2 1014.8 - 0.0 - - - - - - -
05/02:30am 12.1 ESE 2 3 1014.7 - 0.0 - - - - - - -
05/02:00am 13.3 SSW 2 2 1014.5 - 0.0 - - - - - - -
05/01:30am 13.4 SSW 3 4 1014.7 - 0.0 - - - - - - -
05/01:00am 12.8 CALM 0 0 1014.6 - 0.0 - - - - - - -
05/12:30am 13.6 CALM 0 0 1014.6 - 0.0 - - - - - - -
05/12:00am 15.6 SSW 2 3 1014.7 - 0.0 - - - - - - -
 
Date/Time
WST
Temp

°C
Wind Pressure Rain
since 9am
mm
Weather Cloud Vis
km
Sea
Height
m
Swell
Dir
 
Speed
knots
Gust
knots
hPa Trend Height
m
Period
s
Dir
04/11:30pm 16.9 S 2 4 1015.0 - 0.0 - - - - - - -
04/11:00pm 17.0 SSW 3 5 1015.1 - 0.0 - - - - - - -
04/10:30pm 17.0 SSW 3 4 1015.1 - 0.0 - - - - - - -
04/10:00pm 17.6 SW 6 9 1015.1 - 0.0 - - - - - - -
04/09:30pm 18.4 WSW 8 12 1015.0 - 0.0 - - - - - - -
04/09:00pm 18.3 WSW 6 10 1015.0 - 0.0 - - - - - - -
04/08:30pm 17.8 WSW 6 9 1014.9 - 0.0 - - - - - - -
04/08:00pm 18.3 SW 6 11 1014.9 - 0.0 - - - - - - -
04/07:30pm 18.1 WSW 9 15 1015.0 - 0.0 - - - - - - -
04/07:00pm 18.0 WSW 7 13 1014.8 - 0.0 - - - - - - -
04/06:30pm 17.9 WSW 7 10 1014.4 - 0.0 - - - - - - -
04/06:00pm 18.1 W 6 9 1014.1 - 0.0 - - - - - - -
04/05:30pm 17.9 WNW 7 11 1014.0 - 0.0 - - - - - - -
04/05:00pm 18.6 W 7 11 1014.0 - 0.0 - - - - - - -
04/04:30pm 19.1 W 6 10 1013.9 - 0.0 - - - - - - -
04/04:00pm 19.8 W 7 11 1014.0 - 0.0 - - - - - - -
04/03:30pm 19.0 WNW 7 10 1014.3 - 0.0 - - - - - - -
04/03:00pm 17.8 WSW 8 12 1014.5 - 0.0 - - - - - - -
04/02:30pm 17.9 W 6 12 1014.6 - 0.0 - - - - - - -
04/02:00pm 18.4 NW 9 12 1014.7 - 0.0 - - - - - - -
04/01:30pm 19.0 NW 10 13 1014.8 - 0.0 - - - - - - -
04/01:00pm 19.1 NW 10 13 1015.1 - 0.0 - - - - - - -
04/12:30pm 18.6 NNW 7 10 1015.4 - 0.0 - - - - - - -
04/12:00pm 19.2 W 8 11 1015.9 - 0.0 - - - - - - -
04/11:30am 19.2 W 6 8 1016.3 - 0.0 - - - - - - -
04/11:00am 19.6 NW 6 9 1016.7 - 0.0 - - - - - - -
04/10:30am 19.1 W 5 8 1017.0 - 0.0 - - - - - - -
04/10:00am 18.4 WNW 6 8 1017.2 - 0.0 - - - - - - -
04/09:30am 17.9 W 5 11 1017.3 - 0.0 - - - - - - -
04/09:00am 15.7 ENE 2 2 1017.3 - 0.0 - - - - - - -
04/08:30am 14.7 CALM 0 0 1017.5 - 0.0 - - - - - - -
04/08:00am 13.7 CALM 0 0 1017.4 - 0.0 - - - - - - -
04/07:30am 12.9 CALM 0 0 1017.2 - 0.0 - - - - - - -
04/07:00am 12.8 ENE 1 2 1017.0 - 0.0 - - - - - - -
04/06:30am 12.1 E 2 3 1017.0 - 0.0 - - - - - - -
04/06:00am 12.2 ENE 2 3 1017.2 - 0.0 - - - - - - -
04/05:30am 12.4 CALM 0 0 1017.3 - 0.0 - - - - - - -
04/05:00am 12.0 CALM 0 0 1017.3 - 0.0 - - - - - - -
04/04:30am 11.3 CALM 0 1 1017.4 - 0.0 - - - - - - -
04/04:00am 11.6 SE 1 2 1017.4 - 0.0 - - - - - - -
04/03:30am 11.8 ESE 2 2 1017.3 - 0.0 - - - - - - -
04/03:00am 11.7 ENE 2 2 1017.5 - 0.0 - - - - - - -
04/02:30am 11.7 E 1 2 1017.9 - 0.0 - - - - - - -
04/02:00am 11.1 ENE 1 3 1018.2 - 0.0 - - - - - - -
04/01:30am 11.0 CALM 0 0 1018.5 - 0.0 - - - - - - -
04/01:00am 11.1 ENE 1 2 1018.8 - 0.0 - - - - - - -
04/12:30am 10.7 E 2 2 1018.9 - 0.0 - - - - - - -
04/12:00am 10.7 ESE 2 2 1019.1 - 0.0 - - - - - - -
 
Date/Time
WST
Temp

°C
Wind Pressure Rain
since 9am
mm
Weather Cloud Vis
km
Sea
Height
m
Swell
Dir
 
Speed
knots
Gust
knots
hPa Trend Height
m
Period
s
Dir
03/11:30pm 10.8 SE 1 1 1019.2 - 0.0 - - - - - - -
03/11:00pm 11.4 CALM 0 0 1019.3 - 0.0 - - - - - - -
03/10:30pm 12.1 CALM 0 0 1019.5 - 0.0 - - - - - - -
03/10:00pm 12.5 E 2 2 1019.7 - 0.0 - - - - - - -
03/09:30pm 13.3 CALM 0 0 1019.7 - 0.0 - - - - - - -
03/09:00pm 13.5 CALM 0 0 1019.8 - 0.0 - - - - - - -
03/08:30pm 14.3 SSW 1 2 1019.7 - 0.0 - - - - - - -
03/08:00pm 15.8 S 2 3 1019.8 - 0.0 - - - - - - -
03/07:30pm 16.9 SW 3 6 1019.8 - 0.0 - - - - - - -
03/07:00pm 17.3 WSW 4 6 1019.9 - 0.0 - - - - - - -
03/06:30pm 17.3 WSW 4 7 1019.7 - 0.0 - - - - - - -
03/06:00pm 17.5 W 5 7 1019.5 - 0.0 - - - - - - -
03/05:30pm 17.8 W 5 8 1019.5 - 0.0 - - - - - - -
03/05:00pm 18.4 WNW 6 9 1019.4 - 0.0 - - - - - - -
03/04:30pm 18.7 W 7 9 1019.6 - 0.0 - - - - - - -
03/04:00pm 19.4 W 7 11 1019.6 - 0.0 - - - - - - -
03/03:30pm 19.5 WNW 6 10 1019.5 - 0.0 - - - - - - -
03/03:00pm 19.5 W 6 10 1019.8 - 0.0 - - - - - - -
03/02:30pm 19.8 NW 6 8 1019.7 - 0.0 - - - - - - -
03/02:00pm 19.8 WNW 5 8 1019.9 - 0.0 - - - - - - -
03/01:30pm 19.5 W 6 9 1020.1 - 0.0 - - - - - - -
03/01:00pm 19.8 WNW 5 7 1020.2 - 0.0 - - - - - - -
03/12:30pm 19.8 SW 2 4 1020.6 - 0.0 - - - - - - -
03/12:00pm 18.7 WNW 3 5 1021.2 - 0.0 - - - - - - -
03/11:30am 19.4 WNW 3 6 1021.5 - 0.0 - - - - - - -
03/11:00am 19.3 W 3 5 1021.8 - 0.0 - - - - - - -
03/10:30am 18.4 SW 2 4 1022.1 - 0.0 - - - - - - -
03/10:00am 17.7 SSW 4 7 1022.1 - 0.0 - - - - - - -
03/09:30am 17.1 SE 2 3 1022.1 - 0.0 - - - - - - -
03/09:00am 16.4 ESE 2 4 1022.2 - 0.0 - - - - - - -
03/08:30am 14.9 CALM 0 0 1022.2 - 0.0 - - - - - - -
03/08:00am 13.9 CALM 0 0 1022.0 - 0.0 - - - - - - -
03/07:30am 13.2 CALM 0 0 1021.7 - 0.0 - - - - - - -
03/07:00am 13.0 CALM 0 0 1021.4 - 0.0 - - - - - - -
03/06:30am 12.6 CALM 0 0 1021.1 - 0.0 - - - - - - -
03/06:00am 12.3 CALM 0 0 1021.0 - 0.0 - - - - - - -
03/05:30am 11.8 CALM 0 3 1021.0 - 0.0 - - - - - - -
03/05:00am 11.5 SE 4 7 1020.9 - 0.0 - - - - - - -
03/04:30am 11.4 CALM 0 0 1020.6 - 0.0 - - - - - - -
03/04:00am 10.9 CALM 0 0 1020.6 - 0.0 - - - - - - -
03/03:30am 10.2 CALM 0 0 1020.7 - 0.0 - - - - - - -
03/03:00am 9.1 E 1 2 1020.8 - 0.0 - - - - - - -
03/02:30am 9.9 CALM 0 0 1020.9 - 0.0 - - - - - - -
03/02:00am 10.2 CALM 0 0 1021.1 - 0.0 - - - - - - -
03/01:30am 10.4 CALM 0 0 1021.4 - 0.0 - - - - - - -
03/01:00am 10.8 CALM 0 0 1021.4 - 0.0 - - - - - - -
03/12:30am 10.8 CALM 0 0 1021.5 - 0.0 - - - - - - -
03/12:00am 11.0 CALM 0 0 1021.5 - 0.0 - - - - - - -
 
Date/Time
WST
Temp

°C
Wind Pressure Rain
since 9am
mm
Weather Cloud Vis
km
Sea
Height
m
Swell
Dir
 
Speed
knots
Gust
knots
hPa Trend Height
m
Period
s
Dir
02/11:30pm 11.7 CALM 0 1 1021.5 - 0.0 - - - - - - -
02/11:00pm 12.1 S 1 2 1021.6 - 0.0 - - - - - - -
02/10:30pm 13.3 S 4 5 1021.5 - 0.0 - - - - - - -
02/10:00pm 12.8 S 2 3 1021.4 - 0.0 - - - - - - -
02/09:30pm 12.5 S 2 3 1021.3 - 0.0 - - - - - - -
02/09:00pm 13.1 S 1 2 1021.1 - 0.0 - - - - - - -
02/08:30pm 14.4 S 2 3 1021.1 - 0.0 - - - - - - -
02/08:00pm 15.2 SSW 3 3 1021.2 - 0.0 - - - - - - -
02/07:30pm 16.0 SSW 3 5 1021.0 - 0.0 - - - - - - -
02/07:00pm 16.8 SW 5 6 1021.0 - 0.0 - - - - - - -
02/06:30pm 17.2 SSW 5 7 1020.5 - 0.0 - - - - - - -
02/06:00pm 17.7 SW 5 8 1020.3 - 0.0 - - - - - - -
02/05:30pm 18.7 SW 7 11 1020.0 - 0.0 - - - - - - -
02/05:00pm 19.0 WSW 6 9 1019.9 - 0.0 - - - - - - -
02/04:30pm 19.1 WSW 5 8 1019.8 - 0.0 - - - - - - -
02/04:00pm 18.9 W 5 7 1020.0 - 0.0 - - - - - - -
02/03:30pm 19.0 WSW 5 8 1020.0 - 0.0 - - - - - - -
02/03:00pm 19.1 W 6 8 1019.8 - 0.0 - - - - - - -
02/02:30pm 19.0 W 6 8 1019.7 - 0.0 - - - - - - -
02/02:00pm 19.0 SW 6 9 1020.0 - 0.0 - - - - - - -
02/01:30pm 18.7 SW 9 13 1020.1 - 0.0 - - - - - - -
02/01:00pm 19.2 SW 7 10 1020.4 - 0.0 - - - - - - -
02/12:30pm 19.2 SW 8 11 1020.7 - 0.0 - - - - - - -
02/12:00pm 20.0 SW 8 13 1020.9 - 0.0 - - - - - - -
02/11:30am 19.3 SW 6 10 1020.9 - 0.0 - - - - - - -
02/11:00am 19.2 WSW 7 12 1021.2 - 0.0 - - - - - - -
02/10:30am 18.9 WSW 5 8 1021.2 - 0.0 - - - - - - -
02/10:00am 18.5 SW 3 7 1021.2 - 0.0 - - - - - - -
02/09:30am 17.9 CALM 0 1 1021.3 - 0.0 - - - - - - -
02/09:00am 15.5 E 2 2 1021.4 - 2.0 - - - - - - -
02/08:30am 14.0 ENE 1 2 1021.4 - 2.0 - - - - - - -
02/08:00am 13.1 E 2 3 1021.2 - 2.0 - - - - - - -
02/07:30am 12.1 CALM 0 0 1020.9 - 2.0 - - - - - - -
02/07:00am 12.3 CALM 0 0 1020.6 - 2.0 - - - - - - -
02/06:30am 12.6 ENE 1 2 1020.5 - 2.0 - - - - - - -
02/06:00am 12.1 CALM 0 2 1020.4 - 1.8 - - - - - - -
02/05:30am 12.4 ENE 1 2 1020.3 - 1.8 - - - - - - -

Other Formats:

Comma delimited format used in spreadsheet applications
http://www.bom.gov.au/fwo/IDW60701/IDW60701.94604.axf

JavaScript Object Notation format (JSON) in row-major order
http://www.bom.gov.au/fwo/IDW60701/IDW60701.94604.json